Date,TemperatureHighF,TemperatureAvgF,TemperatureLowF,DewpointHighF,DewpointAvgF,DewpointLowF,HumidityHigh,HumidityAvg,HumidityLow,PressureMaxIn,PressureMinIn,WindSpeedMaxMPH,WindSpeedAvgMPH,GustSpeedMaxMPH,PrecipitationSumIn
2013-1-1,31,9,1,-100,-100,-100,0,0,100,0.00,40.00,0,-999,0,0.01
2013-1-2,29,11,2,-100,-100,-100,0,0,100,0.00,40.00,0,-999,0,0.00
2013-1-3,31,13,2,-100,-100,-100,0,0,100,0.00,40.00,0,-999,0,0.00
2013-1-4,35,17,7,-100,-100,-100,0,0,100,0.00,40.00,0,-999,0,0.02
2013-1-5,41,26,16,-100,-100,-100,0,0,100,0.00,40.00,0,-999,0,0.02
2013-1-6,43,27,18,-100,-100,-100,0,0,100,0.00,40.00,0,-999,0,0.00
2013-1-7,49,29,18,-100,-100,-100,0,0,100,0.00,40.00,0,-999,0,0.00
2013-1-8,49,32,20,-100,-100,-100,0,0,100,0.00,40.00,0,-999,0,0.01
2013-1-9,49,31,24,-100,-100,-100,0,0,100,0.00,40.00,0,-999,0,0.00
2013-1-10,40,28,21,-100,-100,-100,0,0,100,0.00,40.00,0,-999,0,0.03
2013-1-11,26,16,2,-100,-100,-100,0,0,100,0.00,40.00,0,-999,0,0.02
2013-1-12,15,-1,-11,-100,-100,-100,0,0,100,0.00,40.00,0,-999,0,0.01
2013-1-13,18,3,-11,-100,-100,-100,0,0,100,0.00,40.00,0,-999,0,0.03
2013-1-14,19,7,-5,-100,-100,-100,0,0,100,0.00,40.00,0,-999,0,0.03
2013-1-15,32,10,-8,-100,-100,-100,0,0,100,0.00,40.00,0,-999,0,0.01
2013-1-16,39,24,14,-100,-100,-100,0,0,100,0.00,40.00,0,-999,0,0.01
2013-1-17,44,26,19,-100,-100,-100,0,0,100,0.00,40.00,0,-999,0,0.02
2013-1-18,47,26,16,-100,-100,-100,0,0,100,0.00,40.00,0,-999,0,0.02
2013-1-19,53,30,19,-100,-100,-100,0,0,100,0.00,40.00,0,-999,0,0.00
2013-1-20,51,29,17,-100,-100,-100,0,0,100,0.00,40.00,0,-999,0,0.02
2013-1-21,53,34,22,-100,-100,-100,0,0,100,0.00,40.00,0,-999,0,0.00
2013-1-22,56,37,27,-100,-100,-100,0,0,100,0.00,40.00,0,-999,0,0.02
2013-1-23,52,36,24,-100,-100,-100,0,0,100,0.00,40.00,0,-999,0,0.02
2013-1-24,47,38,29,-100,-100,-100,0,0,100,0.00,40.00,0,-999,0,0.02
2013-1-25,40,36,34,-100,-100,-100,0,0,100,0.00,40.00,0,-999,0,0.01
2013-1-26,36,35,33,-100,-100,-100,0,0,100,0.00,40.00,0,-999,0,0.06
2013-1-27,38,35,33,-100,-100,-100,0,0,100,0.00,40.00,0,-999,0,0.03
2013-1-28,33,28,21,-100,-100,-100,0,0,100,0.00,40.00,0,-999,0,0.06
2013-1-29,26,17,8,-100,-100,-100,0,0,100,0.00,40.00,0,-999,0,0.00
2013-1-30,33,21,9,-100,-100,-100,0,0,100,0.00,40.00,0,-999,0,0.00
2013-1-31,47,31,18,-100,-100,-100,0,0,100,0.00,40.00,0,-999,0,0.00